sensor_id;sensor_type;location;lat;lon;timestamp;temperature;humidity
9824;DHT22;4951;50.778;7.196;2023-07-31T00:01:36;18.20;99.90
9824;DHT22;4951;50.778;7.196;2023-07-31T00:04:07;18.20;99.90
9824;DHT22;4951;50.778;7.196;2023-07-31T00:06:35;18.20;99.90
9824;DHT22;4951;50.778;7.196;2023-07-31T00:09:02;18.20;99.90
9824;DHT22;4951;50.778;7.196;2023-07-31T00:11:30;18.20;99.90
9824;DHT22;4951;50.778;7.196;2023-07-31T00:13:58;18.20;99.90
9824;DHT22;4951;50.778;7.196;2023-07-31T00:16:28;18.20;99.90
9824;DHT22;4951;50.778;7.196;2023-07-31T00:18:56;18.20;99.90
9824;DHT22;4951;50.778;7.196;2023-07-31T00:21:23;18.20;99.90
9824;DHT22;4951;50.778;7.196;2023-07-31T00:23:52;18.20;99.90
9824;DHT22;4951;50.778;7.196;2023-07-31T00:26:19;18.30;99.90
9824;DHT22;4951;50.778;7.196;2023-07-31T00:28:46;18.30;99.90
9824;DHT22;4951;50.778;7.196;2023-07-31T00:31:18;18.30;99.90
9824;DHT22;4951;50.778;7.196;2023-07-31T00:33:47;18.30;99.90
9824;DHT22;4951;50.778;7.196;2023-07-31T00:36:15;18.30;99.90
9824;DHT22;4951;50.778;7.196;2023-07-31T00:38:43;18.40;99.90
9824;DHT22;4951;50.778;7.196;2023-07-31T00:41:11;18.40;99.90
9824;DHT22;4951;50.778;7.196;2023-07-31T00:43:38;18.40;99.90
9824;DHT22;4951;50.778;7.196;2023-07-31T00:46:08;18.40;99.90
9824;DHT22;4951;50.778;7.196;2023-07-31T00:48:37;18.40;99.90
9824;DHT22;4951;50.778;7.196;2023-07-31T00:51:06;18.50;99.90
9824;DHT22;4951;50.778;7.196;2023-07-31T00:53:37;18.50;99.90
9824;DHT22;4951;50.778;7.196;2023-07-31T00:56:06;18.40;99.90
9824;DHT22;4951;50.778;7.196;2023-07-31T00:58:34;18.50;99.90
9824;DHT22;4951;50.778;7.196;2023-07-31T01:01:03;18.50;99.90
9824;DHT22;4951;50.778;7.196;2023-07-31T01:03:32;18.50;99.90
9824;DHT22;4951;50.778;7.196;2023-07-31T01:06:14;18.50;99.90
9824;DHT22;4951;50.778;7.196;2023-07-31T01:08:54;18.50;99.90
9824;DHT22;4951;50.778;7.196;2023-07-31T01:11:28;18.40;99.90
9824;DHT22;4951;50.778;7.196;2023-07-31T01:13:59;18.40;99.90
9824;DHT22;4951;50.778;7.196;2023-07-31T01:16:31;18.40;99.90
9824;DHT22;4951;50.778;7.196;2023-07-31T01:18:59;18.40;99.90
9824;DHT22;4951;50.778;7.196;2023-07-31T01:21:41;18.40;99.90
9824;DHT22;4951;50.778;7.196;2023-07-31T01:24:21;18.40;99.90
9824;DHT22;4951;50.778;7.196;2023-07-31T01:26:55;18.30;99.90
9824;DHT22;4951;50.778;7.196;2023-07-31T01:29:29;18.30;99.90
9824;DHT22;4951;50.778;7.196;2023-07-31T01:32:01;18.30;99.90
9824;DHT22;4951;50.778;7.196;2023-07-31T01:34:31;18.30;1.00
9824;DHT22;4951;50.778;7.196;2023-07-31T01:36:58;18.30;1.00
9824;DHT22;4951;50.778;7.196;2023-07-31T01:39:27;18.30;1.00
9824;DHT22;4951;50.778;7.196;2023-07-31T01:41:57;18.10;1.00
9824;DHT22;4951;50.778;7.196;2023-07-31T01:44:25;17.90;1.00
9824;DHT22;4951;50.778;7.196;2023-07-31T01:46:54;17.70;1.00
9824;DHT22;4951;50.778;7.196;2023-07-31T01:49:21;17.60;1.00
9824;DHT22;4951;50.778;7.196;2023-07-31T01:51:48;17.50;1.00
9824;DHT22;4951;50.778;7.196;2023-07-31T01:54:16;17.40;1.00
9824;DHT22;4951;50.778;7.196;2023-07-31T01:56:43;17.30;1.00
9824;DHT22;4951;50.778;7.196;2023-07-31T01:59:13;17.30;1.00
9824;DHT22;4951;50.778;7.196;2023-07-31T02:01:41;17.30;1.00
9824;DHT22;4951;50.778;7.196;2023-07-31T02:04:08;17.30;1.00
9824;DHT22;4951;50.778;7.196;2023-07-31T02:06:40;17.30;1.00
9824;DHT22;4951;50.778;7.196;2023-07-31T02:09:08;17.30;1.00
9824;DHT22;4951;50.778;7.196;2023-07-31T02:11:38;17.40;1.00
9824;DHT22;4951;50.778;7.196;2023-07-31T02:14:06;17.40;1.00
9824;DHT22;4951;50.778;7.196;2023-07-31T02:16:35;17.40;1.00
9824;DHT22;4951;50.778;7.196;2023-07-31T02:19:04;17.40;1.00
9824;DHT22;4951;50.778;7.196;2023-07-31T02:21:31;17.40;1.00
9824;DHT22;4951;50.778;7.196;2023-07-31T02:23:58;17.40;1.00
9824;DHT22;4951;50.778;7.196;2023-07-31T02:26:28;17.50;1.00
9824;DHT22;4951;50.778;7.196;2023-07-31T02:28:56;17.50;1.00
9824;DHT22;4951;50.778;7.196;2023-07-31T02:31:24;17.50;1.00
9824;DHT22;4951;50.778;7.196;2023-07-31T02:33:53;17.50;1.00
9824;DHT22;4951;50.778;7.196;2023-07-31T02:36:21;17.50;1.00
9824;DHT22;4951;50.778;7.196;2023-07-31T02:38:48;17.50;1.00
9824;DHT22;4951;50.778;7.196;2023-07-31T02:41:16;17.60;1.00
9824;DHT22;4951;50.778;7.196;2023-07-31T02:43:43;17.60;1.00
9824;DHT22;4951;50.778;7.196;2023-07-31T02:46:10;17.60;1.00
9824;DHT22;4951;50.778;7.196;2023-07-31T02:48:37;17.70;1.00
9824;DHT22;4951;50.778;7.196;2023-07-31T02:51:06;17.70;1.00
9824;DHT22;4951;50.778;7.196;2023-07-31T02:53:36;17.70;1.00
9824;DHT22;4951;50.778;7.196;2023-07-31T02:56:04;17.70;1.00
9824;DHT22;4951;50.778;7.196;2023-07-31T02:58:32;17.70;1.00
9824;DHT22;4951;50.778;7.196;2023-07-31T03:00:59;17.70;1.00
9824;DHT22;4951;50.778;7.196;2023-07-31T03:03:26;17.70;1.00
9824;DHT22;4951;50.778;7.196;2023-07-31T03:05:53;17.70;1.00
9824;DHT22;4951;50.778;7.196;2023-07-31T03:08:23;17.70;1.00
9824;DHT22;4951;50.778;7.196;2023-07-31T03:10:50;17.80;1.00
9824;DHT22;4951;50.778;7.196;2023-07-31T03:13:17;17.80;1.00
9824;DHT22;4951;50.778;7.196;2023-07-31T03:15:47;17.90;1.00
9824;DHT22;4951;50.778;7.196;2023-07-31T03:18:15;17.90;1.00
9824;DHT22;4951;50.778;7.196;2023-07-31T03:20:43;17.90;1.00
9824;DHT22;4951;50.778;7.196;2023-07-31T03:23:11;17.90;1.00
9824;DHT22;4951;50.778;7.196;2023-07-31T03:25:52;17.90;1.00
9824;DHT22;4951;50.778;7.196;2023-07-31T03:28:21;17.90;1.00
9824;DHT22;4951;50.778;7.196;2023-07-31T03:30:49;17.90;1.00
9824;DHT22;4951;50.778;7.196;2023-07-31T03:33:17;17.90;1.00
9824;DHT22;4951;50.778;7.196;2023-07-31T03:35:45;17.90;1.00
9824;DHT22;4951;50.778;7.196;2023-07-31T03:38:13;17.90;1.00
9824;DHT22;4951;50.778;7.196;2023-07-31T03:40:41;17.90;1.00
9824;DHT22;4951;50.778;7.196;2023-07-31T03:43:08;17.90;1.00
9824;DHT22;4951;50.778;7.196;2023-07-31T03:45:39;17.90;1.00
9824;DHT22;4951;50.778;7.196;2023-07-31T03:48:06;18.00;1.00
9824;DHT22;4951;50.778;7.196;2023-07-31T03:50:34;18.00;1.00
9824;DHT22;4951;50.778;7.196;2023-07-31T03:53:02;18.00;1.00
9824;DHT22;4951;50.778;7.196;2023-07-31T03:55:31;18.00;1.00
9824;DHT22;4951;50.778;7.196;2023-07-31T03:57:59;18.00;1.00
9824;DHT22;4951;50.778;7.196;2023-07-31T04:00:27;18.00;1.00
9824;DHT22;4951;50.778;7.196;2023-07-31T04:02:54;18.00;1.00
9824;DHT22;4951;50.778;7.196;2023-07-31T04:05:23;18.00;1.00
9824;DHT22;4951;50.778;7.196;2023-07-31T04:07:51;18.00;1.00
9824;DHT22;4951;50.778;7.196;2023-07-31T04:10:19;18.00;1.00
9824;DHT22;4951;50.778;7.196;2023-07-31T04:12:46;18.00;1.00
9824;DHT22;4951;50.778;7.196;2023-07-31T04:15:18;18.00;1.00
9824;DHT22;4951;50.778;7.196;2023-07-31T04:17:45;18.10;1.00
9824;DHT22;4951;50.778;7.196;2023-07-31T04:20:16;18.10;1.00
9824;DHT22;4951;50.778;7.196;2023-07-31T04:22:43;18.10;1.00
9824;DHT22;4951;50.778;7.196;2023-07-31T04:25:12;18.10;1.00
9824;DHT22;4951;50.778;7.196;2023-07-31T04:27:43;18.10;1.00
9824;DHT22;4951;50.778;7.196;2023-07-31T04:30:11;18.10;1.00
9824;DHT22;4951;50.778;7.196;2023-07-31T04:32:39;18.10;1.00
9824;DHT22;4951;50.778;7.196;2023-07-31T04:35:07;18.10;1.00
9824;DHT22;4951;50.778;7.196;2023-07-31T04:37:34;18.10;1.00
9824;DHT22;4951;50.778;7.196;2023-07-31T04:40:01;18.10;1.00
9824;DHT22;4951;50.778;7.196;2023-07-31T04:42:28;18.10;1.00
9824;DHT22;4951;50.778;7.196;2023-07-31T04:44:55;18.10;1.00
9824;DHT22;4951;50.778;7.196;2023-07-31T04:47:25;18.20;1.00
9824;DHT22;4951;50.778;7.196;2023-07-31T04:49:55;18.20;1.00
9824;DHT22;4951;50.778;7.196;2023-07-31T04:52:22;18.20;1.00
9824;DHT22;4951;50.778;7.196;2023-07-31T04:54:49;18.20;1.00
9824;DHT22;4951;50.778;7.196;2023-07-31T04:57:17;18.20;1.00
9824;DHT22;4951;50.778;7.196;2023-07-31T04:59:45;18.20;1.00
9824;DHT22;4951;50.778;7.196;2023-07-31T05:02:13;18.20;1.00
9824;DHT22;4951;50.778;7.196;2023-07-31T05:04:42;18.30;1.00
9824;DHT22;4951;50.778;7.196;2023-07-31T05:07:10;18.30;1.00
9824;DHT22;4951;50.778;7.196;2023-07-31T05:09:37;18.30;1.00
9824;DHT22;4951;50.778;7.196;2023-07-31T05:12:08;18.30;1.00
9824;DHT22;4951;50.778;7.196;2023-07-31T05:14:36;18.30;1.00
9824;DHT22;4951;50.778;7.196;2023-07-31T05:17:04;18.40;1.00
9824;DHT22;4951;50.778;7.196;2023-07-31T05:19:33;18.40;1.00
9824;DHT22;4951;50.778;7.196;2023-07-31T05:22:00;18.40;1.00
9824;DHT22;4951;50.778;7.196;2023-07-31T05:24:32;18.40;1.00
9824;DHT22;4951;50.778;7.196;2023-07-31T05:26:59;18.40;1.00
9824;DHT22;4951;50.778;7.196;2023-07-31T05:29:26;18.40;1.00
9824;DHT22;4951;50.778;7.196;2023-07-31T05:31:54;18.50;1.00
9824;DHT22;4951;50.778;7.196;2023-07-31T05:34:23;18.50;1.00
9824;DHT22;4951;50.778;7.196;2023-07-31T05:36:52;18.60;1.00
9824;DHT22;4951;50.778;7.196;2023-07-31T05:39:21;18.60;1.00
9824;DHT22;4951;50.778;7.196;2023-07-31T05:41:49;18.70;99.90
9824;DHT22;4951;50.778;7.196;2023-07-31T05:44:18;18.70;99.90
9824;DHT22;4951;50.778;7.196;2023-07-31T05:46:46;18.70;99.90
9824;DHT22;4951;50.778;7.196;2023-07-31T05:49:13;18.80;99.90
9824;DHT22;4951;50.778;7.196;2023-07-31T05:51:40;18.80;99.90
9824;DHT22;4951;50.778;7.196;2023-07-31T05:54:09;18.80;99.90
9824;DHT22;4951;50.778;7.196;2023-07-31T05:56:37;18.80;99.90
9824;DHT22;4951;50.778;7.196;2023-07-31T05:59:05;18.90;99.90
9824;DHT22;4951;50.778;7.196;2023-07-31T06:01:33;18.90;99.90
9824;DHT22;4951;50.778;7.196;2023-07-31T06:04:05;18.90;99.90
9824;DHT22;4951;50.778;7.196;2023-07-31T06:06:32;18.90;99.90
9824;DHT22;4951;50.778;7.196;2023-07-31T06:09:02;18.90;99.90
9824;DHT22;4951;50.778;7.196;2023-07-31T06:11:30;18.90;99.90
9824;DHT22;4951;50.778;7.196;2023-07-31T06:13:57;18.90;99.90
9824;DHT22;4951;50.778;7.196;2023-07-31T06:16:26;18.80;99.90
9824;DHT22;4951;50.778;7.196;2023-07-31T06:18:53;18.80;99.90
9824;DHT22;4951;50.778;7.196;2023-07-31T06:21:21;18.80;99.90
9824;DHT22;4951;50.778;7.196;2023-07-31T06:23:48;18.70;1.00
9824;DHT22;4951;50.778;7.196;2023-07-31T06:26:16;18.70;1.00
9824;DHT22;4951;50.778;7.196;2023-07-31T06:28:43;18.70;1.00
9824;DHT22;4951;50.778;7.196;2023-07-31T06:31:10;18.60;1.00
9824;DHT22;4951;50.778;7.196;2023-07-31T06:33:39;18.50;1.00
9824;DHT22;4951;50.778;7.196;2023-07-31T06:36:06;18.40;1.00
9824;DHT22;4951;50.778;7.196;2023-07-31T06:38:33;18.30;1.00
9824;DHT22;4951;50.778;7.196;2023-07-31T06:41:01;18.20;1.00
9824;DHT22;4951;50.778;7.196;2023-07-31T06:43:29;18.20;1.00
9824;DHT22;4951;50.778;7.196;2023-07-31T06:45:56;18.10;1.00
9824;DHT22;4951;50.778;7.196;2023-07-31T06:48:23;18.00;1.00
9824;DHT22;4951;50.778;7.196;2023-07-31T06:50:51;18.00;1.00
9824;DHT22;4951;50.778;7.196;2023-07-31T06:53:18;18.00;1.00
9824;DHT22;4951;50.778;7.196;2023-07-31T06:55:46;17.90;1.00
9824;DHT22;4951;50.778;7.196;2023-07-31T06:58:14;17.90;1.00
9824;DHT22;4951;50.778;7.196;2023-07-31T07:00:41;17.90;1.00
9824;DHT22;4951;50.778;7.196;2023-07-31T07:03:08;18.00;1.00
9824;DHT22;4951;50.778;7.196;2023-07-31T07:05:35;18.00;1.00
9824;DHT22;4951;50.778;7.196;2023-07-31T07:08:04;18.00;1.00
9824;DHT22;4951;50.778;7.196;2023-07-31T07:10:31;18.10;1.00
9824;DHT22;4951;50.778;7.196;2023-07-31T07:13:00;18.20;1.00
9824;DHT22;4951;50.778;7.196;2023-07-31T07:15:31;18.30;1.00
9824;DHT22;4951;50.778;7.196;2023-07-31T07:17:58;18.40;1.00
9824;DHT22;4951;50.778;7.196;2023-07-31T07:20:25;18.50;1.00
9824;DHT22;4951;50.778;7.196;2023-07-31T07:22:54;18.70;1.00
9824;DHT22;4951;50.778;7.196;2023-07-31T07:25:25;18.90;1.00
9824;DHT22;4951;50.778;7.196;2023-07-31T07:27:53;19.20;1.00
9824;DHT22;4951;50.778;7.196;2023-07-31T07:30:20;19.40;1.00
9824;DHT22;4951;50.778;7.196;2023-07-31T07:32:49;19.50;1.00
9824;DHT22;4951;50.778;7.196;2023-07-31T07:35:17;19.60;1.00
9824;DHT22;4951;50.778;7.196;2023-07-31T07:37:44;19.60;1.00
9824;DHT22;4951;50.778;7.196;2023-07-31T07:40:11;19.60;1.00
9824;DHT22;4951;50.778;7.196;2023-07-31T07:42:40;19.60;1.00
9824;DHT22;4951;50.778;7.196;2023-07-31T07:45:08;19.50;1.00
9824;DHT22;4951;50.778;7.196;2023-07-31T07:47:35;19.40;1.00
9824;DHT22;4951;50.778;7.196;2023-07-31T07:50:05;19.20;1.00
9824;DHT22;4951;50.778;7.196;2023-07-31T07:52:34;19.00;1.00
9824;DHT22;4951;50.778;7.196;2023-07-31T07:55:04;18.80;1.00
9824;DHT22;4951;50.778;7.196;2023-07-31T07:57:31;18.60;1.00
9824;DHT22;4951;50.778;7.196;2023-07-31T08:00:00;18.40;1.00
9824;DHT22;4951;50.778;7.196;2023-07-31T08:02:41;18.30;1.00
9824;DHT22;4951;50.778;7.196;2023-07-31T08:05:18;18.10;1.00
9824;DHT22;4951;50.778;7.196;2023-07-31T08:07:45;18.10;1.00
9824;DHT22;4951;50.778;7.196;2023-07-31T08:10:19;18.00;1.00
9824;DHT22;4951;50.778;7.196;2023-07-31T08:13:07;18.00;1.00
9824;DHT22;4951;50.778;7.196;2023-07-31T08:15:42;18.00;1.00
9824;DHT22;4951;50.778;7.196;2023-07-31T08:18:26;17.90;1.00
9824;DHT22;4951;50.778;7.196;2023-07-31T08:21:08;17.90;1.00
9824;DHT22;4951;50.778;7.196;2023-07-31T08:23:54;17.90;3.90
9824;DHT22;4951;50.778;7.196;2023-07-31T08:26:31;17.90;24.40
9824;DHT22;4951;50.778;7.196;2023-07-31T08:28:58;17.90;29.10
9824;DHT22;4951;50.778;7.196;2023-07-31T08:31:31;17.90;38.30
9824;DHT22;4951;50.778;7.196;2023-07-31T08:33:59;17.90;49.70
9824;DHT22;4951;50.778;7.196;2023-07-31T08:36:40;17.90;54.60
9824;DHT22;4951;50.778;7.196;2023-07-31T08:39:20;18.00;67.50
9824;DHT22;4951;50.778;7.196;2023-07-31T08:41:59;18.00;65.90
9824;DHT22;4951;50.778;7.196;2023-07-31T08:44:31;18.00;82.40
9824;DHT22;4951;50.778;7.196;2023-07-31T08:47:13;18.10;75.40
9824;DHT22;4951;50.778;7.196;2023-07-31T08:52:52;18.10;54.60
9824;DHT22;4951;50.778;7.196;2023-07-31T08:55:26;18.20;46.70
9824;DHT22;4951;50.778;7.196;2023-07-31T08:58:00;18.20;40.50
9824;DHT22;4951;50.778;7.196;2023-07-31T09:03:44;18.10;35.30
9824;DHT22;4951;50.778;7.196;2023-07-31T09:06:30;18.10;40.20
9824;DHT22;4951;50.778;7.196;2023-07-31T09:09:00;18.00;32.90
9824;DHT22;4951;50.778;7.196;2023-07-31T09:11:35;18.00;50.40
9824;DHT22;4951;50.778;7.196;2023-07-31T09:14:08;18.00;66.00
9824;DHT22;4951;50.778;7.196;2023-07-31T09:16:37;18.10;81.50
9824;DHT22;4951;50.778;7.196;2023-07-31T09:19:34;18.00;93.30
9824;DHT22;4951;50.778;7.196;2023-07-31T09:22:06;18.10;99.90
9824;DHT22;4951;50.778;7.196;2023-07-31T09:24:35;18.10;99.90
9824;DHT22;4951;50.778;7.196;2023-07-31T09:27:09;18.20;99.90
9824;DHT22;4951;50.778;7.196;2023-07-31T09:29:58;18.20;99.90
9824;DHT22;4951;50.778;7.196;2023-07-31T09:32:50;18.20;99.90
9824;DHT22;4951;50.778;7.196;2023-07-31T09:35:32;18.30;99.90
9824;DHT22;4951;50.778;7.196;2023-07-31T09:38:10;18.30;99.90
9824;DHT22;4951;50.778;7.196;2023-07-31T09:40:39;18.30;99.90
9824;DHT22;4951;50.778;7.196;2023-07-31T09:43:18;18.30;99.90
9824;DHT22;4951;50.778;7.196;2023-07-31T09:45:58;18.40;99.90
9824;DHT22;4951;50.778;7.196;2023-07-31T09:48:28;18.40;99.90
9824;DHT22;4951;50.778;7.196;2023-07-31T09:51:04;18.30;99.90
9824;DHT22;4951;50.778;7.196;2023-07-31T09:53:32;18.30;99.90
9824;DHT22;4951;50.778;7.196;2023-07-31T09:56:33;18.30;99.90
9824;DHT22;4951;50.778;7.196;2023-07-31T09:59:20;18.30;99.90
9824;DHT22;4951;50.778;7.196;2023-07-31T10:02:00;18.30;99.90
9824;DHT22;4951;50.778;7.196;2023-07-31T10:04:31;18.30;99.90
9824;DHT22;4951;50.778;7.196;2023-07-31T10:07:20;18.30;99.90
9824;DHT22;4951;50.778;7.196;2023-07-31T10:10:07;18.40;99.90
9824;DHT22;4951;50.778;7.196;2023-07-31T10:12:49;18.40;99.90
9824;DHT22;4951;50.778;7.196;2023-07-31T10:15:39;18.50;99.90
9824;DHT22;4951;50.778;7.196;2023-07-31T10:18:20;18.60;99.90
9824;DHT22;4951;50.778;7.196;2023-07-31T10:21:01;18.60;99.90
9824;DHT22;4951;50.778;7.196;2023-07-31T10:23:33;18.60;99.90
9824;DHT22;4951;50.778;7.196;2023-07-31T10:26:05;18.70;99.90
9824;DHT22;4951;50.778;7.196;2023-07-31T10:28:37;18.70;99.90
9824;DHT22;4951;50.778;7.196;2023-07-31T10:31:21;18.70;99.90
9824;DHT22;4951;50.778;7.196;2023-07-31T10:33:52;18.80;99.90
9824;DHT22;4951;50.778;7.196;2023-07-31T10:36:38;18.80;99.90
9824;DHT22;4951;50.778;7.196;2023-07-31T10:39:35;18.90;99.90
9824;DHT22;4951;50.778;7.196;2023-07-31T10:42:15;19.00;99.90
9824;DHT22;4951;50.778;7.196;2023-07-31T10:44:47;19.10;99.90
9824;DHT22;4951;50.778;7.196;2023-07-31T10:47:29;19.20;91.10
9824;DHT22;4951;50.778;7.196;2023-07-31T10:53:06;19.30;16.80
9824;DHT22;4951;50.778;7.196;2023-07-31T10:56:06;19.40;1.00
9824;DHT22;4951;50.778;7.196;2023-07-31T10:59:06;19.50;1.00
9824;DHT22;4951;50.778;7.196;2023-07-31T11:01:56;19.50;1.00
9824;DHT22;4951;50.778;7.196;2023-07-31T11:04:30;19.50;1.00
9824;DHT22;4951;50.778;7.196;2023-07-31T11:07:21;19.50;1.00
9824;DHT22;4951;50.778;7.196;2023-07-31T11:09:50;19.50;1.00
9824;DHT22;4951;50.778;7.196;2023-07-31T11:12:21;19.50;1.00
9824;DHT22;4951;50.778;7.196;2023-07-31T11:14:57;19.50;1.00
9824;DHT22;4951;50.778;7.196;2023-07-31T11:17:42;19.50;1.00
9824;DHT22;4951;50.778;7.196;2023-07-31T11:20:11;19.50;1.00
9824;DHT22;4951;50.778;7.196;2023-07-31T11:22:58;19.50;1.00
9824;DHT22;4951;50.778;7.196;2023-07-31T11:25:36;19.60;1.00
9824;DHT22;4951;50.778;7.196;2023-07-31T11:28:55;19.70;99.90
9824;DHT22;4951;50.778;7.196;2023-07-31T11:31:27;19.80;99.90
9824;DHT22;4951;50.778;7.196;2023-07-31T11:34:26;19.80;99.90
9824;DHT22;4951;50.778;7.196;2023-07-31T11:37:18;20.00;48.50
9824;DHT22;4951;50.778;7.196;2023-07-31T11:40:01;20.00;99.90
9824;DHT22;4951;50.778;7.196;2023-07-31T11:42:29;19.70;99.90
9824;DHT22;4951;50.778;7.196;2023-07-31T11:45:24;19.50;1.00
9824;DHT22;4951;50.778;7.196;2023-07-31T11:47:51;19.50;1.00
9824;DHT22;4951;50.778;7.196;2023-07-31T11:50:36;19.50;1.00
9824;DHT22;4951;50.778;7.196;2023-07-31T11:53:09;19.30;1.00
9824;DHT22;4951;50.778;7.196;2023-07-31T11:55:54;19.20;1.00
9824;DHT22;4951;50.778;7.196;2023-07-31T11:59:17;19.30;1.00
9824;DHT22;4951;50.778;7.196;2023-07-31T12:01:46;19.80;1.00
9824;DHT22;4951;50.778;7.196;2023-07-31T12:04:20;20.20;1.00
9824;DHT22;4951;50.778;7.196;2023-07-31T12:06:49;20.50;1.00
9824;DHT22;4951;50.778;7.196;2023-07-31T12:09:50;20.70;1.00
9824;DHT22;4951;50.778;7.196;2023-07-31T12:12:20;21.00;1.00
9824;DHT22;4951;50.778;7.196;2023-07-31T12:14:51;21.30;99.90
9824;DHT22;4951;50.778;7.196;2023-07-31T12:17:34;21.50;99.90
9824;DHT22;4951;50.778;7.196;2023-07-31T12:20:09;21.80;99.90
9824;DHT22;4951;50.778;7.196;2023-07-31T12:22:53;22.10;1.00
9824;DHT22;4951;50.778;7.196;2023-07-31T12:25:29;22.30;1.00
9824;DHT22;4951;50.778;7.196;2023-07-31T12:27:57;22.40;1.00
9824;DHT22;4951;50.778;7.196;2023-07-31T12:31:00;22.30;1.00
9824;DHT22;4951;50.778;7.196;2023-07-31T12:34:15;22.20;1.00
9824;DHT22;4951;50.778;7.196;2023-07-31T12:37:08;22.00;1.00
9824;DHT22;4951;50.778;7.196;2023-07-31T12:39:36;21.70;1.00
9824;DHT22;4951;50.778;7.196;2023-07-31T12:42:55;21.50;1.00
9824;DHT22;4951;50.778;7.196;2023-07-31T12:45:48;21.40;99.90
9824;DHT22;4951;50.778;7.196;2023-07-31T12:48:20;21.30;99.90
9824;DHT22;4951;50.778;7.196;2023-07-31T12:51:24;21.30;99.90
9824;DHT22;4951;50.778;7.196;2023-07-31T12:53:58;21.10;1.00
9824;DHT22;4951;50.778;7.196;2023-07-31T12:56:36;21.00;99.90
9824;DHT22;4951;50.778;7.196;2023-07-31T12:59:20;21.00;1.00
9824;DHT22;4951;50.778;7.196;2023-07-31T13:02:04;20.90;1.00
9824;DHT22;4951;50.778;7.196;2023-07-31T13:04:33;20.90;1.00
9824;DHT22;4951;50.778;7.196;2023-07-31T13:07:17;21.00;1.00
9824;DHT22;4951;50.778;7.196;2023-07-31T13:09:47;21.00;1.00
9824;DHT22;4951;50.778;7.196;2023-07-31T13:12:30;21.10;1.00
9824;DHT22;4951;50.778;7.196;2023-07-31T13:15:31;21.20;1.00
9824;DHT22;4951;50.778;7.196;2023-07-31T13:18:00;21.30;1.00
9824;DHT22;4951;50.778;7.196;2023-07-31T13:20:44;21.40;1.00
9824;DHT22;4951;50.778;7.196;2023-07-31T13:23:12;21.40;1.00
9824;DHT22;4951;50.778;7.196;2023-07-31T13:25:39;21.50;1.00
9824;DHT22;4951;50.778;7.196;2023-07-31T13:28:27;21.50;1.00
9824;DHT22;4951;50.778;7.196;2023-07-31T13:31:44;21.60;99.90
9824;DHT22;4951;50.778;7.196;2023-07-31T13:34:32;21.70;99.90
9824;DHT22;4951;50.778;7.196;2023-07-31T13:37:24;21.80;99.90
9824;DHT22;4951;50.778;7.196;2023-07-31T13:46:41;22.00;1.00
9824;DHT22;4951;50.778;7.196;2023-07-31T13:49:22;22.10;1.00
9824;DHT22;4951;50.778;7.196;2023-07-31T13:52:07;22.30;99.90
9824;DHT22;4951;50.778;7.196;2023-07-31T13:54:36;22.40;1.00
9824;DHT22;4951;50.778;7.196;2023-07-31T13:57:04;22.40;99.90
9824;DHT22;4951;50.778;7.196;2023-07-31T13:59:33;22.40;24.30
9824;DHT22;4951;50.778;7.196;2023-07-31T14:02:17;22.60;99.90
9824;DHT22;4951;50.778;7.196;2023-07-31T14:04:47;23.00;99.90
9824;DHT22;4951;50.778;7.196;2023-07-31T14:07:16;23.20;1.00
9824;DHT22;4951;50.778;7.196;2023-07-31T14:09:48;23.10;1.00
9824;DHT22;4951;50.778;7.196;2023-07-31T14:12:22;23.00;1.00
9824;DHT22;4951;50.778;7.196;2023-07-31T14:15:13;22.90;99.90
9824;DHT22;4951;50.778;7.196;2023-07-31T14:17:52;22.70;1.00
9824;DHT22;4951;50.778;7.196;2023-07-31T14:20:28;22.60;99.90
9824;DHT22;4951;50.778;7.196;2023-07-31T14:23:16;22.50;99.90
9824;DHT22;4951;50.778;7.196;2023-07-31T14:25:45;22.30;1.00
9824;DHT22;4951;50.778;7.196;2023-07-31T14:28:41;22.10;1.00
9824;DHT22;4951;50.778;7.196;2023-07-31T14:31:29;21.90;99.90
9824;DHT22;4951;50.778;7.196;2023-07-31T14:34:04;21.70;1.00
9824;DHT22;4951;50.778;7.196;2023-07-31T14:36:59;21.60;99.90
9824;DHT22;4951;50.778;7.196;2023-07-31T14:39:55;21.50;1.00
9824;DHT22;4951;50.778;7.196;2023-07-31T14:42:22;21.40;1.00
9824;DHT22;4951;50.778;7.196;2023-07-31T14:45:04;21.30;99.90
9824;DHT22;4951;50.778;7.196;2023-07-31T14:48:15;21.20;1.00
9824;DHT22;4951;50.778;7.196;2023-07-31T14:53:29;21.00;29.70
9824;DHT22;4951;50.778;7.196;2023-07-31T14:56:39;20.90;99.90
9824;DHT22;4951;50.778;7.196;2023-07-31T15:00:14;20.80;99.90
9824;DHT22;4951;50.778;7.196;2023-07-31T15:02:44;20.70;99.90
9824;DHT22;4951;50.778;7.196;2023-07-31T15:05:34;20.70;99.90
9824;DHT22;4951;50.778;7.196;2023-07-31T15:08:01;20.70;1.00
9824;DHT22;4951;50.778;7.196;2023-07-31T15:10:39;20.70;1.00
9824;DHT22;4951;50.778;7.196;2023-07-31T15:13:07;20.70;1.00
9824;DHT22;4951;50.778;7.196;2023-07-31T15:15:39;20.70;1.00
9824;DHT22;4951;50.778;7.196;2023-07-31T15:21:24;20.70;1.00
9824;DHT22;4951;50.778;7.196;2023-07-31T15:24:00;20.70;1.00
9824;DHT22;4951;50.778;7.196;2023-07-31T15:26:31;20.60;1.00
9824;DHT22;4951;50.778;7.196;2023-07-31T15:29:17;20.60;1.00
9824;DHT22;4951;50.778;7.196;2023-07-31T15:31:45;20.50;99.90
9824;DHT22;4951;50.778;7.196;2023-07-31T15:34:15;20.50;99.90
9824;DHT22;4951;50.778;7.196;2023-07-31T15:36:55;20.50;99.90
9824;DHT22;4951;50.778;7.196;2023-07-31T15:39:30;20.50;99.90
9824;DHT22;4951;50.778;7.196;2023-07-31T15:42:08;20.50;99.90
9824;DHT22;4951;50.778;7.196;2023-07-31T15:44:40;20.60;1.00
9824;DHT22;4951;50.778;7.196;2023-07-31T15:47:21;20.50;1.00
9824;DHT22;4951;50.778;7.196;2023-07-31T15:49:51;20.60;1.00
9824;DHT22;4951;50.778;7.196;2023-07-31T15:52:21;20.60;99.90
9824;DHT22;4951;50.778;7.196;2023-07-31T15:54:49;20.60;1.00
9824;DHT22;4951;50.778;7.196;2023-07-31T15:57:17;20.70;1.00
9824;DHT22;4951;50.778;7.196;2023-07-31T16:00:29;20.70;99.90
9824;DHT22;4951;50.778;7.196;2023-07-31T16:03:08;20.70;99.90
9824;DHT22;4951;50.778;7.196;2023-07-31T16:09:05;20.60;4.30
9824;DHT22;4951;50.778;7.196;2023-07-31T16:11:34;20.60;20.80
9824;DHT22;4951;50.778;7.196;2023-07-31T16:14:01;20.60;99.90
9824;DHT22;4951;50.778;7.196;2023-07-31T16:16:59;20.60;99.90
9824;DHT22;4951;50.778;7.196;2023-07-31T16:19:36;20.50;99.90
9824;DHT22;4951;50.778;7.196;2023-07-31T16:22:05;20.50;99.90
9824;DHT22;4951;50.778;7.196;2023-07-31T16:24:34;20.50;1.00
9824;DHT22;4951;50.778;7.196;2023-07-31T16:27:09;20.50;1.00
9824;DHT22;4951;50.778;7.196;2023-07-31T16:29:40;20.40;1.00
9824;DHT22;4951;50.778;7.196;2023-07-31T16:32:08;20.30;5.90
9824;DHT22;4951;50.778;7.196;2023-07-31T16:34:42;20.10;99.90
9824;DHT22;4951;50.778;7.196;2023-07-31T16:37:19;19.80;99.90
9824;DHT22;4951;50.778;7.196;2023-07-31T16:39:50;19.40;1.00
9824;DHT22;4951;50.778;7.196;2023-07-31T16:42:49;19.00;1.00
9824;DHT22;4951;50.778;7.196;2023-07-31T16:45:20;18.60;1.00
9824;DHT22;4951;50.778;7.196;2023-07-31T16:47:47;18.40;1.00
9824;DHT22;4951;50.778;7.196;2023-07-31T16:50:17;18.30;1.00
9824;DHT22;4951;50.778;7.196;2023-07-31T16:52:50;18.10;1.00
9824;DHT22;4951;50.778;7.196;2023-07-31T16:55:20;18.10;1.00
9824;DHT22;4951;50.778;7.196;2023-07-31T16:58:07;18.00;1.00
9824;DHT22;4951;50.778;7.196;2023-07-31T17:00:38;17.90;1.00
9824;DHT22;4951;50.778;7.196;2023-07-31T17:03:06;17.90;1.00
9824;DHT22;4951;50.778;7.196;2023-07-31T17:05:38;17.90;35.00
9824;DHT22;4951;50.778;7.196;2023-07-31T17:08:07;17.80;72.80
9824;DHT22;4951;50.778;7.196;2023-07-31T17:10:43;17.80;90.20
9824;DHT22;4951;50.778;7.196;2023-07-31T17:13:38;17.70;97.80
9824;DHT22;4951;50.778;7.196;2023-07-31T17:16:15;17.70;99.90
9824;DHT22;4951;50.778;7.196;2023-07-31T17:18:48;17.70;99.90
9824;DHT22;4951;50.778;7.196;2023-07-31T17:21:22;17.70;99.90
9824;DHT22;4951;50.778;7.196;2023-07-31T17:23:51;17.60;99.90